createdAt,value
2017-07-24T00:00:29.795Z,18.18
2017-07-24T00:01:29.781Z,18.2
2017-07-24T00:02:29.791Z,18.18
2017-07-24T00:03:29.781Z,18.2
2017-07-24T00:04:29.784Z,18.15
2017-07-24T00:05:29.771Z,18.15
2017-07-24T00:06:29.785Z,18.1
2017-07-24T00:07:29.764Z,18.18
2017-07-24T00:08:29.776Z,18.18
2017-07-24T00:09:29.763Z,18.1
2017-07-24T00:10:29.767Z,18.2
2017-07-24T00:11:29.758Z,18.17
2017-07-24T00:12:29.457Z,18.18
2017-07-24T00:13:29.750Z,18.2
2017-07-24T00:14:29.753Z,18.15
2017-07-24T00:15:29.443Z,18.21
2017-07-24T00:16:29.739Z,18.23
2017-07-24T00:17:29.740Z,18.23
2017-07-24T00:18:29.726Z,18.2
2017-07-24T00:19:29.741Z,18.17
2017-07-24T00:20:29.734Z,18.15
2017-07-24T00:21:29.730Z,18.14
2017-07-24T00:22:29.710Z,18.14
2017-07-24T00:23:29.729Z,18.14
2017-07-24T00:24:29.696Z,18.12
2017-07-24T00:25:29.712Z,18.11
2017-07-24T00:26:29.701Z,18.11
2017-07-24T00:27:29.720Z,18.15
2017-07-24T00:28:29.700Z,18.11
2017-07-24T00:29:29.701Z,18.12
2017-07-24T00:30:29.697Z,18.14
2017-07-24T00:31:29.702Z,18.12
2017-07-24T00:32:29.699Z,18.18
2017-07-24T00:33:29.670Z,18.1
2017-07-24T00:34:29.680Z,18.03
2017-07-24T00:35:29.692Z,18
2017-07-24T00:36:29.374Z,18.02
2017-07-24T00:37:29.679Z,17.99
2017-07-24T00:38:29.660Z,17.96
2017-07-24T00:39:29.679Z,17.92
2017-07-24T00:40:29.667Z,17.93
2017-07-24T00:41:29.668Z,17.93
2017-07-24T00:42:29.647Z,17.89
2017-07-24T00:43:29.664Z,17.93
2017-07-24T00:44:29.650Z,17.9
2017-07-24T00:45:29.661Z,17.89
2017-07-24T00:46:29.637Z,17.9
2017-07-24T00:47:29.624Z,17.89
2017-07-24T00:48:29.639Z,17.9
2017-07-24T00:49:29.646Z,17.93
2017-07-24T00:50:29.638Z,17.84
2017-07-24T00:51:29.312Z,17.97
2017-07-24T00:52:29.631Z,17.84
2017-07-24T00:53:29.628Z,17.95
2017-07-24T00:54:29.604Z,17.86
2017-07-24T00:55:29.618Z,17.87
2017-07-24T00:56:29.606Z,17.78
2017-07-24T00:57:29.617Z,17.82
2017-07-24T00:58:29.585Z,17.75
2017-07-24T00:59:29.610Z,17.64
2017-07-24T01:00:29.603Z,17.64
2017-07-24T01:01:29.601Z,17.64
2017-07-24T01:02:29.600Z,17.59
2017-07-24T01:03:29.596Z,17.52
2017-07-24T01:04:29.574Z,17.48
2017-07-24T01:05:29.586Z,17.41
2017-07-24T01:06:29.576Z,17.4
2017-07-24T01:07:29.583Z,17.38
2017-07-24T01:08:29.568Z,17.36
2017-07-24T01:09:29.580Z,17.25
2017-07-24T01:10:29.547Z,17.33
2017-07-24T01:11:29.560Z,17.21
2017-07-24T01:12:29.238Z,17.21
2017-07-24T01:13:29.565Z,17.19
2017-07-24T01:14:29.546Z,17.19
2017-07-24T01:15:29.550Z,17.11
2017-07-24T01:16:29.236Z,17.04
2017-07-24T01:17:29.552Z,17.14
2017-07-24T01:18:29.519Z,17.03
2017-07-24T01:19:29.536Z,17.04
2017-07-24T01:20:29.211Z,16.98
2017-07-24T01:21:29.523Z,17.06
2017-07-24T01:22:29.515Z,16.96
2017-07-24T01:23:29.520Z,16.93
2017-07-24T01:24:29.502Z,16.93
2017-07-24T01:25:29.518Z,16.85
2017-07-24T01:26:29.499Z,16.94
2017-07-24T01:27:29.507Z,16.78
2017-07-24T01:28:29.494Z,16.81
2017-07-24T01:29:29.500Z,16.78
2017-07-24T01:30:29.484Z,16.73
2017-07-24T01:31:29.493Z,16.73
2017-07-24T01:32:29.496Z,16.73
2017-07-24T01:33:29.489Z,16.71
2017-07-24T01:34:29.449Z,16.71
2017-07-24T01:35:29.464Z,16.68
2017-07-24T01:36:29.448Z,16.7
2017-07-24T01:37:29.467Z,16.68
2017-07-24T01:38:29.461Z,16.61
2017-07-24T01:39:29.444Z,16.58
2017-07-24T01:40:29.446Z,16.58
2017-07-24T01:41:29.428Z,16.56
2017-07-24T01:42:29.447Z,16.6
2017-07-24T01:43:29.119Z,16.61
2017-07-24T01:44:29.421Z,16.63
2017-07-24T01:45:29.426Z,16.64
2017-07-24T01:46:29.417Z,16.68
2017-07-24T01:47:29.430Z,16.66
2017-07-24T01:48:29.402Z,16.63
2017-07-24T01:49:29.414Z,16.68
2017-07-24T01:50:29.411Z,16.73
2017-07-24T01:51:29.397Z,16.73
2017-07-24T01:52:29.083Z,16.73
2017-07-24T01:53:29.410Z,16.73
2017-07-24T01:54:29.393Z,16.7
2017-07-24T01:55:29.075Z,16.75
2017-07-24T01:56:29.380Z,16.7
2017-07-24T01:57:29.383Z,16.71
2017-07-24T01:58:29.380Z,16.75
2017-07-24T01:59:29.363Z,16.71
2017-07-24T02:00:29.372Z,16.71
2017-07-24T02:01:29.342Z,16.73
2017-07-24T02:02:29.363Z,16.79
2017-07-24T02:03:29.341Z,16.68
2017-07-24T02:04:29.355Z,16.76
2017-07-24T02:05:29.338Z,16.76
2017-07-24T02:06:29.345Z,16.81
2017-07-24T02:07:29.343Z,16.78
2017-07-24T02:08:29.331Z,16.86
2017-07-24T02:09:29.325Z,16.83
2017-07-24T02:10:29.330Z,16.79
2017-07-24T02:11:29.307Z,16.83
2017-07-24T02:12:29.318Z,16.79
2017-07-24T02:13:29.294Z,16.86
2017-07-24T02:14:29.318Z,16.82
2017-07-24T02:15:29.302Z,16.83
2017-07-24T02:16:29.308Z,16.83
2017-07-24T02:17:29.320Z,16.82
2017-07-24T02:18:29.300Z,16.81
2017-07-24T02:19:29.289Z,16.81
2017-07-24T02:20:29.300Z,16.79
2017-07-24T02:21:29.270Z,16.82
2017-07-24T02:22:29.287Z,16.82
2017-07-24T02:23:28.968Z,16.82
2017-07-24T02:24:28.982Z,16.71
2017-07-24T02:25:28.959Z,16.79
2017-07-24T02:26:29.260Z,16.76
2017-07-24T02:27:29.268Z,16.73
2017-07-24T02:28:29.256Z,16.76
2017-07-24T02:29:29.249Z,16.67
2017-07-24T02:30:29.255Z,16.78
2017-07-24T02:31:28.932Z,16.75
2017-07-24T02:32:29.228Z,16.73
2017-07-24T02:33:29.245Z,16.71
2017-07-24T02:34:29.216Z,16.75
2017-07-24T02:35:29.231Z,16.73
2017-07-24T02:36:29.219Z,16.79
2017-07-24T02:37:29.227Z,16.73
2017-07-24T02:38:29.218Z,16.7
2017-07-24T02:39:29.214Z,16.67
2017-07-24T02:40:29.207Z,16.75
2017-07-24T02:41:28.883Z,16.7
2017-07-24T02:42:29.178Z,16.71
2017-07-24T02:43:29.196Z,16.7
2017-07-24T02:44:29.195Z,16.7
2017-07-24T02:45:29.189Z,16.66
2017-07-24T02:46:29.170Z,16.71
2017-07-24T02:47:29.186Z,16.67
2017-07-24T02:48:29.170Z,16.68
2017-07-24T02:49:29.164Z,16.64
2017-07-24T02:50:29.163Z,16.56
2017-07-24T02:51:29.161Z,16.58
2017-07-24T02:52:28.850Z,16.57
2017-07-24T02:53:29.133Z,16.58
2017-07-24T02:54:29.154Z,16.6
2017-07-24T02:55:29.184Z,16.49
2017-07-24T02:56:29.139Z,16.46
2017-07-24T02:57:29.117Z,16.34
2017-07-24T02:58:29.117Z,16.34
2017-07-24T02:59:28.819Z,16.31
2017-07-24T03:00:29.137Z,16.23
2017-07-24T03:01:29.116Z,16.24
2017-07-24T03:02:29.116Z,16.2
2017-07-24T03:03:29.092Z,16.21
2017-07-24T03:04:29.108Z,16.2
2017-07-24T03:05:29.093Z,16.17
2017-07-24T03:06:29.107Z,16.09
2017-07-24T03:07:29.078Z,16.14
2017-07-24T03:08:29.082Z,16.01
2017-07-24T03:09:29.063Z,16.04
2017-07-24T03:10:28.773Z,16.01
2017-07-24T03:11:29.081Z,16.01
2017-07-24T03:12:29.068Z,16
2017-07-24T03:13:29.064Z,15.97
2017-07-24T03:14:29.053Z,16
2017-07-24T03:15:29.057Z,16
2017-07-24T03:16:29.048Z,16
2017-07-24T03:17:29.061Z,15.94
2017-07-24T03:18:29.038Z,15.89
2017-07-24T03:19:29.045Z,15.82
2017-07-24T03:20:29.028Z,15.87
2017-07-24T03:21:29.044Z,15.83
2017-07-24T03:22:29.013Z,15.76
2017-07-24T03:23:29.026Z,15.78
2017-07-24T03:24:29.009Z,15.67
2017-07-24T03:25:29.019Z,15.65
2017-07-24T03:26:29.014Z,15.6
2017-07-24T03:27:29.012Z,15.64
2017-07-24T03:28:28.988Z,15.57
2017-07-24T03:29:28.987Z,15.59
2017-07-24T03:30:28.982Z,15.6
2017-07-24T03:31:28.991Z,15.54
2017-07-24T03:32:28.973Z,15.59
2017-07-24T03:33:28.987Z,15.59
2017-07-24T03:34:28.963Z,15.54
2017-07-24T03:35:28.978Z,15.54
2017-07-24T03:36:28.957Z,15.54
2017-07-24T03:37:28.967Z,15.57
2017-07-24T03:38:28.937Z,15.54
2017-07-24T03:39:28.953Z,15.53
2017-07-24T03:40:28.947Z,15.54
2017-07-24T03:41:28.634Z,15.56
2017-07-24T03:42:28.917Z,15.53
2017-07-24T03:43:28.927Z,15.54
2017-07-24T03:44:28.932Z,15.51
2017-07-24T03:45:28.932Z,15.5
2017-07-24T03:46:28.928Z,15.56
2017-07-24T03:47:28.902Z,15.54
2017-07-24T03:48:28.900Z,15.56
2017-07-24T03:49:28.901Z,15.49
2017-07-24T03:50:28.915Z,15.62
2017-07-24T03:51:28.584Z,15.69
2017-07-24T03:52:28.591Z,15.56
2017-07-24T03:53:28.891Z,15.59
2017-07-24T03:54:28.554Z,15.69
2017-07-24T03:55:28.884Z,15.67
2017-07-24T03:56:28.875Z,15.75
2017-07-24T03:57:28.872Z,15.74
2017-07-24T03:58:28.846Z,15.76
2017-07-24T03:59:28.542Z,15.87
2017-07-24T04:00:28.854Z,15.9
2017-07-24T04:01:28.850Z,15.87
2017-07-24T04:02:28.850Z,16.02
2017-07-24T04:03:28.518Z,16.14
2017-07-24T04:04:28.846Z,16.31
2017-07-24T04:05:28.814Z,16.52
2017-07-24T04:06:28.835Z,16.71
2017-07-24T04:07:28.516Z,16.89
2017-07-24T04:08:28.830Z,17.15
2017-07-24T04:09:28.809Z,17.37
2017-07-24T04:10:28.821Z,17.64
2017-07-24T04:11:28.794Z,17.84
2017-07-24T04:12:28.812Z,18.03
2017-07-24T04:13:28.786Z,18.3
2017-07-24T04:14:28.808Z,18.57
2017-07-24T04:15:28.794Z,18.92
2017-07-24T04:16:28.797Z,19.18
2017-07-24T04:17:28.778Z,19.51
2017-07-24T04:18:28.790Z,19.69
2017-07-24T04:19:28.768Z,20.02
2017-07-24T04:20:28.780Z,20.24
2017-07-24T04:21:28.779Z,20.55
2017-07-24T04:22:28.788Z,20.8
2017-07-24T04:23:28.772Z,21.01
2017-07-24T04:24:28.777Z,21.12
2017-07-24T04:25:28.766Z,21.17
2017-07-24T04:26:28.767Z,21.34
2017-07-24T04:27:28.765Z,21.4
2017-07-24T04:28:28.769Z,21.49
2017-07-24T04:29:28.450Z,21.61
2017-07-24T04:30:28.774Z,21.75
2017-07-24T04:31:28.772Z,21.75
2017-07-24T04:32:28.774Z,21.83
2017-07-24T04:33:28.772Z,21.94
2017-07-24T04:34:28.775Z,21.96
2017-07-24T04:35:28.767Z,21.92
2017-07-24T04:36:28.760Z,21.98
2017-07-24T04:37:28.767Z,22.02
2017-07-24T04:38:28.781Z,22.06
2017-07-24T04:39:28.769Z,22
2017-07-24T04:40:28.461Z,21.99
2017-07-24T04:41:28.773Z,22.09
2017-07-24T04:42:28.466Z,21.96
2017-07-24T04:43:28.769Z,22.07
2017-07-24T04:44:28.449Z,22.07
2017-07-24T04:45:28.468Z,22.1
2017-07-24T04:46:28.451Z,22.17
2017-07-24T04:47:28.757Z,22.25
2017-07-24T04:48:28.457Z,22.35
2017-07-24T04:49:28.770Z,22.35
2017-07-24T04:50:28.465Z,22.49
2017-07-24T04:51:28.442Z,22.54
2017-07-24T04:52:28.758Z,22.75
2017-07-24T04:53:28.766Z,22.9
2017-07-24T04:54:28.466Z,22.95
2017-07-24T04:55:28.771Z,23.02
2017-07-24T04:56:28.777Z,23.16
2017-07-24T04:57:28.761Z,23.22
2017-07-24T04:58:28.777Z,23.38
2017-07-24T04:59:28.144Z,23.47
2017-07-24T05:00:28.466Z,23.48
2017-07-24T05:01:28.766Z,23.6
2017-07-24T05:02:28.164Z,23.75
2017-07-24T05:03:28.805Z,23.72
2017-07-24T05:04:28.769Z,23.83
2017-07-24T05:05:28.775Z,23.83
2017-07-24T05:06:28.775Z,23.87
2017-07-24T05:07:28.783Z,23.95
2017-07-24T05:08:28.815Z,24.15
2017-07-24T05:09:28.773Z,24.2
2017-07-24T05:10:28.785Z,24.35
2017-07-24T05:11:28.790Z,24.5
2017-07-24T05:12:28.797Z,24.65
2017-07-24T05:13:28.803Z,24.65
2017-07-24T05:14:28.495Z,24.64
2017-07-24T05:15:28.786Z,24.64
2017-07-24T05:16:28.808Z,24.69
2017-07-24T05:17:28.794Z,24.73
2017-07-24T05:18:28.813Z,24.69
2017-07-24T05:19:28.819Z,24.71
2017-07-24T05:20:28.810Z,24.78
2017-07-24T05:21:28.805Z,24.85
2017-07-24T05:22:28.797Z,24.83
2017-07-24T05:23:28.818Z,24.93
2017-07-24T05:24:28.818Z,24.84
2017-07-24T05:25:28.834Z,24.93
2017-07-24T05:26:28.825Z,25
2017-07-24T05:27:28.850Z,25.15
2017-07-24T05:28:28.811Z,25.17
2017-07-24T05:29:28.868Z,25.28
2017-07-24T05:30:28.817Z,25.4
2017-07-24T05:31:28.841Z,25.5
2017-07-24T05:32:28.848Z,25.62
2017-07-24T05:33:28.853Z,25.7
2017-07-24T05:34:28.836Z,25.82
2017-07-24T05:35:28.866Z,26.01
2017-07-24T05:36:28.862Z,26.05
2017-07-24T05:37:28.855Z,26.13
2017-07-24T05:38:28.859Z,26.23
2017-07-24T05:39:28.869Z,26.3
2017-07-24T05:40:28.867Z,26.32
2017-07-24T05:41:28.887Z,26.33
2017-07-24T05:42:28.875Z,26.37
2017-07-24T05:43:28.886Z,26.29
2017-07-24T05:44:28.571Z,26.37
2017-07-24T05:45:28.899Z,26.39
2017-07-24T05:46:28.885Z,26.36
2017-07-24T05:47:28.915Z,26.39
2017-07-24T05:48:28.908Z,26.32
2017-07-24T05:49:28.911Z,26.23
2017-07-24T05:50:28.586Z,26.18
2017-07-24T05:51:28.605Z,26.09
2017-07-24T05:52:28.913Z,26.02
2017-07-24T05:53:28.619Z,26.02
2017-07-24T05:54:28.935Z,26.06
2017-07-24T05:55:28.912Z,25.94
2017-07-24T05:56:28.923Z,25.97
2017-07-24T05:57:28.922Z,25.8
2017-07-24T05:58:28.638Z,25.82
2017-07-24T05:59:28.317Z,25.79
2017-07-24T06:00:28.638Z,25.79
2017-07-24T06:01:28.956Z,25.72
2017-07-24T06:02:28.945Z,25.8
2017-07-24T06:03:28.972Z,25.72
2017-07-24T06:04:28.956Z,25.67
2017-07-24T06:05:28.652Z,25.73
2017-07-24T06:06:28.655Z,25.73
2017-07-24T06:07:28.356Z,25.76
2017-07-24T06:08:28.963Z,25.76
2017-07-24T06:09:28.984Z,25.8
2017-07-24T06:10:28.979Z,25.77
2017-07-24T06:11:28.969Z,25.83
2017-07-24T06:12:28.994Z,25.9
2017-07-24T06:13:28.969Z,25.95
2017-07-24T06:14:28.384Z,26.02
2017-07-24T06:15:28.987Z,26.13
2017-07-24T06:16:29.010Z,26.32
2017-07-24T06:17:28.999Z,26.48
2017-07-24T06:18:29.016Z,26.65
2017-07-24T06:19:29.004Z,26.82
2017-07-24T06:20:29.022Z,26.92
2017-07-24T06:21:28.709Z,27.17
2017-07-24T06:22:28.726Z,27.17
2017-07-24T06:23:28.741Z,27.36
2017-07-24T06:24:28.725Z,27.59
2017-07-24T06:25:29.036Z,27.84
2017-07-24T06:26:29.057Z,28.02
2017-07-24T06:27:29.051Z,28.29
2017-07-24T06:28:29.054Z,28.37
2017-07-24T06:29:29.062Z,28.54
2017-07-24T06:30:29.086Z,28.71
2017-07-24T06:31:29.070Z,28.9
2017-07-24T06:32:29.095Z,29.09
2017-07-24T06:33:29.083Z,29.37
2017-07-24T06:34:29.102Z,29.48
2017-07-24T06:35:29.105Z,29.71
2017-07-24T06:36:29.117Z,29.97
2017-07-24T06:37:30.912Z,30.2
2017-07-24T06:38:28.832Z,30.35
2017-07-24T06:39:29.157Z,30.62
2017-07-24T06:40:28.831Z,30.84
2017-07-24T06:41:29.152Z,31.12
2017-07-24T06:42:29.158Z,31.26
2017-07-24T06:43:29.186Z,31.46
2017-07-24T06:44:28.869Z,31.54
2017-07-24T06:45:28.882Z,31.65
2017-07-24T06:46:29.187Z,31.76
2017-07-24T06:47:29.214Z,31.91
2017-07-24T06:48:29.206Z,32.11
2017-07-24T06:49:29.239Z,32.26
2017-07-24T06:50:28.916Z,32.37
2017-07-24T06:51:29.259Z,32.5
2017-07-24T06:52:29.252Z,32.57
2017-07-24T06:53:29.269Z,32.65
2017-07-24T06:54:29.293Z,32.75
2017-07-24T06:55:29.297Z,32.79
2017-07-24T06:56:29.291Z,32.94
2017-07-24T06:57:28.998Z,33.15
2017-07-24T06:58:29.014Z,33.42
2017-07-24T06:59:29.337Z,33.6
2017-07-24T07:00:29.337Z,33.72
2017-07-24T07:01:29.361Z,33.95
2017-07-24T07:02:29.353Z,34.06
2017-07-24T07:03:29.389Z,34.25
2017-07-24T07:04:29.370Z,34.37
2017-07-24T07:05:29.395Z,34.4
2017-07-24T07:06:29.398Z,34.54
2017-07-24T07:07:29.125Z,34.5
2017-07-24T07:08:29.448Z,34.66
2017-07-24T07:09:29.138Z,34.77
2017-07-24T07:10:29.452Z,34.97
2017-07-24T07:12:29.188Z,35.11
2017-07-24T07:13:29.505Z,35.26
2017-07-24T07:14:29.522Z,35.31
2017-07-24T07:15:29.528Z,35.37
2017-07-24T07:16:29.537Z,35.41
2017-07-24T07:17:29.241Z,35.45
2017-07-24T07:18:29.260Z,35.43
2017-07-24T07:19:29.880Z,35.47
2017-07-24T07:20:29.570Z,35.52
2017-07-24T07:21:29.585Z,35.6
2017-07-24T07:22:29.623Z,35.62
2017-07-24T07:23:29.630Z,35.66
2017-07-24T07:24:29.655Z,35.53
2017-07-24T07:25:29.651Z,35.68
2017-07-24T07:26:29.363Z,35.66
2017-07-24T07:27:29.674Z,35.62
2017-07-24T07:28:29.720Z,35.65
2017-07-24T07:29:29.702Z,35.81
2017-07-24T07:30:29.734Z,35.68
2017-07-24T07:31:29.735Z,35.74
2017-07-24T07:32:29.766Z,35.6
2017-07-24T07:33:29.755Z,35.45
2017-07-24T07:34:29.790Z,35.47
2017-07-24T07:35:29.799Z,35.43
2017-07-24T07:36:29.815Z,35.37
2017-07-24T07:37:29.833Z,35.4
2017-07-24T07:38:29.828Z,35.4
2017-07-24T07:39:29.531Z,35.41
2017-07-24T07:40:29.558Z,35.44
2017-07-24T07:41:29.579Z,35.47
2017-07-24T07:42:29.877Z,35.53
2017-07-24T07:43:29.901Z,35.45
2017-07-24T07:44:29.938Z,35.63
2017-07-24T07:45:29.928Z,35.62
2017-07-24T07:46:29.960Z,35.78
2017-07-24T07:47:29.960Z,35.81
2017-07-24T07:48:29.985Z,35.96
2017-07-24T07:49:29.980Z,35.94
2017-07-24T07:50:30.012Z,36
2017-07-24T07:51:30.015Z,36.09
2017-07-24T07:52:30.064Z,36.13
2017-07-24T07:53:29.750Z,36.19
2017-07-24T07:54:30.061Z,36.19
2017-07-24T07:55:29.768Z,36.27
2017-07-24T07:56:29.789Z,36.25
2017-07-24T07:57:29.797Z,36.27
2017-07-24T07:58:30.134Z,36.25
2017-07-24T07:59:29.824Z,36.08
2017-07-24T08:00:29.854Z,36.08
2017-07-24T08:01:30.165Z,35.96
2017-07-24T08:02:30.196Z,35.92
2017-07-24T08:03:29.578Z,35.74
2017-07-24T08:04:30.230Z,35.59
2017-07-24T08:05:29.617Z,35.45
2017-07-24T08:06:29.627Z,35.45
2017-07-24T08:07:30.265Z,35.37
2017-07-24T08:08:30.295Z,35.22
2017-07-24T08:09:30.290Z,35.18
2017-07-24T08:10:30.318Z,34.99
2017-07-24T08:11:29.715Z,34.92
2017-07-24T08:12:30.360Z,34.78
2017-07-24T08:13:30.367Z,34.7
2017-07-24T08:14:30.385Z,34.69
2017-07-24T08:15:30.377Z,34.65
2017-07-24T08:16:30.407Z,34.59
2017-07-24T08:17:29.793Z,34.65
2017-07-24T08:18:30.444Z,34.65
2017-07-24T08:19:30.140Z,34.58
2017-07-24T08:20:30.475Z,34.62
2017-07-24T08:21:30.166Z,34.61
2017-07-24T08:22:30.486Z,34.54
2017-07-24T08:23:30.514Z,34.49
2017-07-24T08:24:30.526Z,34.46
2017-07-24T08:25:30.553Z,34.4
2017-07-24T08:26:30.532Z,34.39
2017-07-24T08:27:30.561Z,34.3
2017-07-24T08:28:30.573Z,34.39
2017-07-24T08:29:30.608Z,34.37
2017-07-24T08:30:30.597Z,34.3
2017-07-24T08:31:30.624Z,34.27
2017-07-24T08:32:30.627Z,34.3
2017-07-24T08:33:30.663Z,34.25
2017-07-24T08:34:30.668Z,34.32
2017-07-24T08:35:30.680Z,34.3
2017-07-24T08:36:30.698Z,34.3
2017-07-24T08:37:30.698Z,34.08
2017-07-24T08:38:30.409Z,33.93
2017-07-24T08:39:30.425Z,33.73
2017-07-24T08:40:30.452Z,33.76
2017-07-24T08:41:30.488Z,33.63
2017-07-24T08:42:30.762Z,33.69
2017-07-24T08:43:30.797Z,33.61
2017-07-24T08:44:30.790Z,33.59
2017-07-24T08:45:30.821Z,33.6
2017-07-24T08:46:30.821Z,33.49
2017-07-24T08:47:30.858Z,33.35
2017-07-24T08:48:30.548Z,33.34
2017-07-24T08:49:30.890Z,33.12
2017-07-24T08:50:30.898Z,33.21
2017-07-24T08:51:30.904Z,33.18
2017-07-24T08:52:30.901Z,33.15
2017-07-24T08:53:30.941Z,33.09
2017-07-24T08:54:30.946Z,33.03
2017-07-24T08:55:30.960Z,33.01
2017-07-24T08:56:30.654Z,32.93
2017-07-24T08:57:30.350Z,32.74
2017-07-24T08:58:30.698Z,32.69
2017-07-24T08:59:30.705Z,32.48
2017-07-24T09:00:30.714Z,32.22
2017-07-24T09:01:31.058Z,32.03
2017-07-24T09:02:31.047Z,31.89
2017-07-24T09:03:31.071Z,31.7
2017-07-24T09:04:31.061Z,31.36
2017-07-24T09:05:31.085Z,31.28
2017-07-24T09:06:31.088Z,31.23
2017-07-24T09:07:31.091Z,31.12
2017-07-24T09:08:31.118Z,30.98
2017-07-24T09:09:31.133Z,30.88
2017-07-24T09:10:31.136Z,30.76
2017-07-24T09:11:31.145Z,30.6
2017-07-24T09:12:31.137Z,30.47
2017-07-24T09:13:30.846Z,30.31
2017-07-24T09:14:31.240Z,30.23
2017-07-24T09:15:31.177Z,30.15
2017-07-24T09:16:30.883Z,30.05
2017-07-24T09:17:31.186Z,30.11
2017-07-24T09:18:31.209Z,30.08
2017-07-24T09:19:30.585Z,29.95
2017-07-24T09:20:31.228Z,29.82
2017-07-24T09:21:31.213Z,29.85
2017-07-24T09:22:31.247Z,29.83
2017-07-24T09:23:30.618Z,29.73
2017-07-24T09:24:31.254Z,29.7
2017-07-24T09:25:30.941Z,29.65
2017-07-24T09:26:30.648Z,29.7
2017-07-24T09:27:30.959Z,29.71
2017-07-24T09:28:30.655Z,29.78
2017-07-24T09:29:31.280Z,29.8
2017-07-24T09:30:30.672Z,29.95
2017-07-24T09:31:30.677Z,30.02
2017-07-24T09:32:30.692Z,30.02
2017-07-24T09:33:31.018Z,30.11
2017-07-24T09:34:31.043Z,30.11
2017-07-24T09:35:31.013Z,30.35
2017-07-24T09:36:31.344Z,30.38
2017-07-24T09:37:31.347Z,30.58
2017-07-24T09:38:31.359Z,30.61
2017-07-24T09:39:31.366Z,30.73
2017-07-24T09:40:31.353Z,30.82
2017-07-24T09:41:31.397Z,30.86
2017-07-24T09:42:31.386Z,30.88
2017-07-24T09:43:31.388Z,31.01
2017-07-24T09:44:31.398Z,30.97
2017-07-24T09:45:31.088Z,31.12
2017-07-24T09:46:31.411Z,31.19
2017-07-24T09:47:31.425Z,31.34
2017-07-24T09:48:31.428Z,31.28
2017-07-24T09:49:31.415Z,31.38
2017-07-24T09:50:31.444Z,31.36
2017-07-24T09:51:31.454Z,31.48
2017-07-24T09:52:31.151Z,31.39
2017-07-24T09:53:31.465Z,31.26
2017-07-24T09:54:31.455Z,31.28
2017-07-24T09:55:31.485Z,31.16
2017-07-24T09:56:31.478Z,31.19
2017-07-24T09:57:31.501Z,31.14
2017-07-24T09:58:31.198Z,31.19
2017-07-24T09:59:31.514Z,31.16
2017-07-24T10:00:31.508Z,31.2
2017-07-24T10:01:31.503Z,31.14
2017-07-24T10:02:31.542Z,31.17
2017-07-24T10:03:31.537Z,31.2
2017-07-24T10:04:31.553Z,31.07
2017-07-24T10:05:31.557Z,30.99
2017-07-24T10:06:31.568Z,30.99
2017-07-24T10:07:31.569Z,30.99
2017-07-24T10:08:31.580Z,31.01
2017-07-24T10:09:31.567Z,31.02
2017-07-24T10:10:31.293Z,30.97
2017-07-24T10:11:31.597Z,31.04
2017-07-24T10:12:31.640Z,30.97
2017-07-24T10:13:31.625Z,30.99
2017-07-24T10:14:31.612Z,30.98
2017-07-24T10:15:31.640Z,31.02
2017-07-24T10:16:31.336Z,30.98
2017-07-24T10:17:31.337Z,30.98
2017-07-24T10:18:31.656Z,30.92
2017-07-24T10:19:31.648Z,30.86
2017-07-24T10:20:31.668Z,30.83
2017-07-24T10:21:31.359Z,30.83
2017-07-24T10:22:31.686Z,30.84
2017-07-24T10:23:31.670Z,30.77
2017-07-24T10:24:31.708Z,30.82
2017-07-24T10:25:31.391Z,30.86
2017-07-24T10:26:31.722Z,30.95
2017-07-24T10:27:31.710Z,31.01
2017-07-24T10:28:31.743Z,31.01
2017-07-24T10:29:31.722Z,31.01
2017-07-24T10:30:31.748Z,30.98
2017-07-24T10:31:31.743Z,31.02
2017-07-24T10:32:31.770Z,31.09
2017-07-24T10:33:31.767Z,31.16
2017-07-24T10:34:31.764Z,31.19
2017-07-24T10:35:31.771Z,31.19
2017-07-24T10:36:31.776Z,31.23
2017-07-24T10:37:31.798Z,31.23
2017-07-24T10:38:31.786Z,31.32
2017-07-24T10:39:31.743Z,31.31
2017-07-24T10:40:31.791Z,31.34
2017-07-24T10:41:31.832Z,31.32
2017-07-24T10:42:31.830Z,31.19
2017-07-24T10:43:31.829Z,31.21
2017-07-24T10:44:32.092Z,31.16
2017-07-24T10:45:31.830Z,31.12
2017-07-24T10:46:31.849Z,31.06
2017-07-24T10:47:31.878Z,31.07
2017-07-24T10:48:31.870Z,31.04
2017-07-24T10:49:32.124Z,31.02
2017-07-24T10:50:31.877Z,31.17
2017-07-24T10:51:31.881Z,31.17
2017-07-24T10:52:31.900Z,31.19
2017-07-24T10:53:31.919Z,31.28
2017-07-24T10:54:32.161Z,31.46
2017-07-24T10:55:31.934Z,31.43
2017-07-24T10:56:31.919Z,31.41
2017-07-24T10:57:31.637Z,31.53
2017-07-24T10:58:31.934Z,31.54
2017-07-24T10:59:31.892Z,31.58
2017-07-24T11:00:31.959Z,31.7
2017-07-24T11:01:31.970Z,31.66
2017-07-24T11:02:31.975Z,31.68
2017-07-24T11:03:31.982Z,31.65
2017-07-24T11:04:32.278Z,31.68
2017-07-24T11:05:31.972Z,31.56
2017-07-24T11:06:32.004Z,31.48
2017-07-24T11:07:31.702Z,31.14
2017-07-24T11:08:32.015Z,31.14
2017-07-24T11:09:32.270Z,31.02
2017-07-24T11:10:32.031Z,31.04
2017-07-24T11:11:32.050Z,30.98
2017-07-24T11:12:32.032Z,30.98
2017-07-24T11:13:32.069Z,30.98
2017-07-24T11:14:32.301Z,30.92
2017-07-24T11:15:32.064Z,30.88
2017-07-24T11:16:32.057Z,30.75
2017-07-24T11:17:32.094Z,30.69
2017-07-24T11:18:32.096Z,30.65
2017-07-24T11:19:32.403Z,30.61
2017-07-24T11:20:32.094Z,30.53
2017-07-24T11:21:31.807Z,30.53
2017-07-24T11:22:32.104Z,30.6
2017-07-24T11:23:31.826Z,30.62
2017-07-24T11:24:32.066Z,30.75
2017-07-24T11:25:31.842Z,30.84
2017-07-24T11:26:32.147Z,30.92
2017-07-24T11:27:32.161Z,31.12
2017-07-24T11:28:31.855Z,31.19
2017-07-24T11:29:32.423Z,31.28
2017-07-24T11:30:32.164Z,31.35
2017-07-24T11:31:32.188Z,31.29
2017-07-24T11:32:31.860Z,31.44
2017-07-24T11:33:31.886Z,31.48
2017-07-24T11:34:32.141Z,31.51
2017-07-24T11:35:32.201Z,31.7
2017-07-24T11:36:32.221Z,31.75
2017-07-24T11:37:31.925Z,31.75
2017-07-24T11:38:32.217Z,31.75
2017-07-24T11:39:32.536Z,31.89
2017-07-24T11:40:32.227Z,31.84
2017-07-24T11:41:31.644Z,31.88
2017-07-24T11:42:32.259Z,31.86
2017-07-24T11:43:32.280Z,31.73
2017-07-24T11:44:32.521Z,31.72
2017-07-24T11:45:32.288Z,31.7
2017-07-24T11:46:32.290Z,31.84
2017-07-24T11:47:32.305Z,31.88
2017-07-24T11:48:32.008Z,31.84
2017-07-24T11:49:32.620Z,31.73
2017-07-24T11:50:32.323Z,31.7
2017-07-24T11:51:32.324Z,31.7
2017-07-24T11:52:32.020Z,31.61
2017-07-24T11:53:32.327Z,31.51
2017-07-24T11:54:32.047Z,31.32
2017-07-24T11:55:32.359Z,31.2
2017-07-24T11:56:32.377Z,31.13
2017-07-24T11:57:32.361Z,31.17
2017-07-24T11:58:32.389Z,31.17
2017-07-24T11:59:32.394Z,31.32
2017-07-24T12:00:32.401Z,31.34
2017-07-24T12:01:32.420Z,31.38
2017-07-24T12:02:32.409Z,31.38
2017-07-24T12:03:32.420Z,31.5
2017-07-24T12:04:32.123Z,31.53
2017-07-24T12:05:32.433Z,31.51
2017-07-24T12:06:32.450Z,31.51
2017-07-24T12:07:32.452Z,31.61
2017-07-24T12:08:32.457Z,31.61
2017-07-24T12:09:32.466Z,31.66
2017-07-24T12:10:32.479Z,31.75
2017-07-24T12:11:32.487Z,31.73
2017-07-24T12:12:32.489Z,31.89
2017-07-24T12:13:32.481Z,32
2017-07-24T12:14:32.501Z,32.07
2017-07-24T12:15:32.501Z,32.14
2017-07-24T12:16:32.522Z,32.19
2017-07-24T12:17:32.211Z,32.22
2017-07-24T12:18:32.541Z,32.37
2017-07-24T12:19:32.532Z,32.37
2017-07-24T12:20:32.550Z,32.48
2017-07-24T12:21:32.554Z,32.56
2017-07-24T12:22:32.544Z,32.44
2017-07-24T12:23:32.575Z,32.44
2017-07-24T12:24:32.288Z,32.38
2017-07-24T12:25:31.959Z,32.25
2017-07-24T12:26:32.598Z,32.04
2017-07-24T12:27:32.599Z,31.85
2017-07-24T12:28:32.608Z,31.73
2017-07-24T12:29:32.611Z,31.65
2017-07-24T12:30:32.620Z,31.56
2017-07-24T12:31:32.608Z,31.57
2017-07-24T12:32:32.335Z,31.56
2017-07-24T12:33:32.637Z,31.62
2017-07-24T12:34:32.668Z,31.69
2017-07-24T12:35:32.663Z,31.73
2017-07-24T12:36:32.671Z,31.8
2017-07-24T12:37:32.676Z,31.76
2017-07-24T12:38:32.668Z,31.81
2017-07-24T12:39:32.376Z,31.8
2017-07-24T12:40:32.701Z,31.85
2017-07-24T12:41:32.400Z,31.78
2017-07-24T12:42:32.711Z,31.69
2017-07-24T12:43:32.727Z,31.7
2017-07-24T12:44:32.417Z,31.76
2017-07-24T12:45:32.739Z,31.72
2017-07-24T12:46:32.433Z,31.78
2017-07-24T12:47:32.757Z,31.7
2017-07-24T12:48:32.760Z,31.73
2017-07-24T12:49:32.778Z,31.81
2017-07-24T12:50:32.764Z,31.81
2017-07-24T12:51:32.794Z,31.75
2017-07-24T12:52:32.506Z,31.69
2017-07-24T12:53:32.792Z,31.56
2017-07-24T12:54:32.796Z,31.53
2017-07-24T12:55:32.820Z,31.5
2017-07-24T12:56:32.833Z,31.47
2017-07-24T12:57:32.829Z,31.48